createdAt,value
2023-06-01T00:02:27.493Z,7.75
2023-06-01T00:04:54.644Z,6.00
2023-06-01T00:07:22.400Z,7.25
2023-06-01T00:09:49.411Z,7.25
2023-06-01T00:12:16.550Z,8.07
2023-06-01T00:14:43.580Z,6.63
2023-06-01T00:17:11.016Z,6.38
2023-06-01T00:19:39.941Z,6.10
2023-06-01T00:22:08.607Z,5.97
2023-06-01T00:24:35.997Z,6.20
2023-06-01T00:27:03.027Z,7.75
2023-06-01T00:29:30.703Z,6.35
2023-06-01T00:31:57.772Z,7.28
2023-06-01T00:34:24.616Z,9.15
2023-06-01T00:36:51.631Z,7.65
2023-06-01T00:39:18.380Z,8.05
2023-06-01T00:41:45.222Z,8.10
2023-06-01T00:44:12.175Z,8.02
2023-06-01T00:46:39.144Z,10.30
2023-06-01T00:49:06.191Z,10.40
2023-06-01T00:51:34.061Z,10.07
2023-06-01T00:54:01.116Z,9.77
2023-06-01T00:56:28.185Z,8.55
2023-06-01T00:58:54.859Z,10.30
2023-06-01T01:01:24.070Z,10.77
2023-06-01T01:03:58.892Z,10.07
2023-06-01T01:06:43.149Z,10.50
2023-06-01T01:09:24.196Z,8.05
2023-06-01T01:11:57.429Z,8.52
2023-06-01T01:14:33.136Z,8.90
2023-06-01T01:17:20.915Z,7.63
2023-06-01T01:19:54.932Z,7.50
2023-06-01T01:22:25.465Z,7.35
2023-06-01T01:25:21.765Z,7.13
2023-06-01T01:28:07.260Z,6.85
2023-06-01T01:30:37.290Z,8.10
2023-06-01T01:33:04.925Z,9.45
2023-06-01T01:35:32.064Z,7.80
2023-06-01T01:37:58.896Z,7.93
2023-06-01T01:40:25.724Z,7.25
2023-06-01T01:42:53.896Z,9.15
2023-06-01T01:45:21.155Z,8.40
2023-06-01T01:47:51.104Z,8.18
2023-06-01T01:50:20.020Z,7.25
2023-06-01T01:52:47.825Z,7.30
2023-06-01T01:55:16.923Z,7.63
2023-06-01T01:57:44.802Z,8.18
2023-06-01T02:00:14.044Z,7.50
2023-06-01T02:02:41.424Z,8.13
2023-06-01T02:05:09.306Z,10.70
2023-06-01T02:07:36.053Z,7.47
2023-06-01T02:10:03.102Z,7.28
2023-06-01T02:12:30.289Z,8.32
2023-06-01T02:14:57.285Z,7.05
2023-06-01T02:17:26.433Z,7.57
2023-06-01T02:19:53.345Z,6.32
2023-06-01T02:22:20.098Z,6.88
2023-06-01T02:24:47.051Z,5.60
2023-06-01T02:27:13.999Z,5.57
2023-06-01T02:29:40.982Z,6.40
2023-06-01T02:32:08.397Z,7.30
2023-06-01T02:34:37.818Z,6.13
2023-06-01T02:37:05.940Z,6.07
2023-06-01T02:39:32.869Z,6.20
2023-06-01T02:41:59.684Z,5.15
2023-06-01T02:44:26.581Z,5.10
2023-06-01T02:46:53.270Z,6.43
2023-06-01T02:49:20.096Z,5.78
2023-06-01T02:51:47.023Z,6.47
2023-06-01T02:54:13.990Z,6.60
2023-06-01T02:56:40.942Z,5.70
2023-06-01T02:59:07.924Z,5.88
2023-06-01T03:01:37.773Z,5.82
2023-06-01T03:04:08.588Z,6.00
2023-06-01T03:06:38.971Z,6.32
2023-06-01T03:09:06.437Z,6.10
2023-06-01T03:11:33.586Z,5.85
2023-06-01T03:14:00.470Z,5.43
2023-06-01T03:16:28.151Z,5.03
2023-06-01T03:18:56.515Z,5.28
2023-06-01T03:21:23.270Z,4.85
2023-06-01T03:23:50.197Z,4.35
2023-06-01T03:26:19.970Z,5.32
2023-06-01T03:28:46.841Z,4.82
2023-06-01T03:31:13.753Z,4.53
2023-06-01T03:33:41.377Z,5.35
2023-06-01T03:36:09.333Z,4.45
2023-06-01T03:38:36.358Z,4.05
2023-06-01T03:41:03.408Z,5.18
2023-06-01T03:43:30.861Z,4.18
2023-06-01T03:45:57.721Z,4.25
2023-06-01T03:48:24.584Z,5.50
2023-06-01T03:50:51.841Z,4.40
2023-06-01T03:53:19.333Z,4.18
2023-06-01T03:55:46.078Z,4.47
2023-06-01T03:58:13.316Z,4.25
2023-06-01T04:00:44.927Z,3.85
2023-06-01T04:03:12.444Z,4.57
2023-06-01T04:05:39.519Z,5.22
2023-06-01T04:08:06.543Z,5.15
2023-06-01T04:10:33.328Z,5.13
2023-06-01T04:13:00.148Z,4.20
2023-06-01T04:15:27.180Z,4.75
2023-06-01T04:17:54.202Z,4.43
2023-06-01T04:20:21.655Z,4.05
2023-06-01T04:22:48.492Z,4.70
2023-06-01T04:25:19.215Z,4.88
2023-06-01T04:27:48.075Z,5.28
2023-06-01T04:30:17.084Z,4.80
2023-06-01T04:32:45.525Z,4.28
2023-06-01T04:35:14.532Z,4.35
2023-06-01T04:37:42.465Z,5.05
2023-06-01T04:40:10.881Z,3.95
2023-06-01T04:42:40.296Z,3.97
2023-06-01T04:45:10.650Z,5.10
2023-06-01T04:47:41.469Z,3.28
2023-06-01T04:50:12.207Z,4.05
2023-06-01T04:52:40.716Z,5.15
2023-06-01T04:55:08.838Z,4.18
2023-06-01T04:57:40.266Z,3.55
2023-06-01T05:00:14.525Z,3.40
2023-06-01T05:02:44.140Z,3.38
2023-06-01T05:05:11.657Z,3.42
2023-06-01T05:07:40.243Z,3.45
2023-06-01T05:10:08.278Z,3.78
2023-06-01T05:12:35.540Z,3.17
2023-06-01T05:15:04.365Z,2.33
2023-06-01T05:17:31.293Z,2.75
2023-06-01T05:20:01.314Z,2.80
2023-06-01T05:22:28.092Z,2.58
2023-06-01T05:24:54.904Z,2.10
2023-06-01T05:27:21.745Z,2.55
2023-06-01T05:29:48.896Z,2.63
2023-06-01T05:32:15.780Z,2.67
2023-06-01T05:34:42.890Z,2.53
2023-06-01T05:37:09.806Z,2.75
2023-06-01T05:39:36.892Z,2.40
2023-06-01T05:42:06.214Z,2.42
2023-06-01T05:44:33.340Z,3.13
2023-06-01T05:47:00.071Z,2.53
2023-06-01T05:49:26.909Z,2.20
2023-06-01T05:51:55.001Z,2.30
2023-06-01T05:54:22.188Z,2.35
2023-06-01T05:56:49.041Z,2.55
2023-06-01T05:59:15.857Z,2.83
2023-06-01T06:01:45.612Z,2.95
2023-06-01T06:04:12.719Z,3.30
2023-06-01T06:06:39.581Z,2.45
2023-06-01T06:09:06.912Z,2.53
2023-06-01T06:11:33.921Z,3.22
2023-06-01T06:14:00.892Z,2.30
2023-06-01T06:16:27.916Z,2.65
2023-06-01T06:18:54.786Z,2.70
2023-06-01T06:21:21.680Z,2.90
2023-06-01T06:23:50.616Z,2.83
2023-06-01T06:26:17.477Z,3.10
2023-06-01T06:28:44.281Z,2.65
2023-06-01T06:31:11.900Z,2.50
2023-06-01T06:33:38.709Z,2.53
2023-06-01T06:36:05.759Z,2.83
2023-06-01T06:38:32.673Z,2.40
2023-06-01T06:41:00.384Z,2.90
2023-06-01T06:43:27.588Z,2.78
2023-06-01T06:45:54.358Z,2.67
2023-06-01T06:48:21.175Z,2.80
2023-06-01T06:50:48.009Z,2.75
2023-06-01T06:53:15.031Z,2.65
2023-06-01T06:55:44.101Z,2.00
2023-06-01T06:58:12.073Z,2.72
2023-06-01T07:00:38.877Z,3.05
2023-06-01T07:03:06.785Z,2.90
2023-06-01T07:05:33.693Z,3.13
2023-06-01T07:08:00.532Z,3.63
2023-06-01T07:10:27.343Z,2.20
2023-06-01T07:12:54.194Z,2.17
2023-06-01T07:15:20.975Z,2.22
2023-06-01T07:17:48.137Z,2.20
2023-06-01T07:20:15.042Z,2.33
2023-06-01T07:22:45.014Z,2.80
2023-06-01T07:25:14.370Z,2.40
2023-06-01T07:27:44.547Z,2.53
2023-06-01T07:30:13.545Z,2.53
2023-06-01T07:32:40.782Z,2.40
2023-06-01T07:35:09.283Z,2.67
2023-06-01T07:37:36.283Z,2.50
2023-06-01T07:40:05.412Z,2.33
2023-06-01T07:42:33.337Z,2.40
2023-06-01T07:45:00.243Z,1.75
2023-06-01T07:47:27.390Z,2.60
2023-06-01T07:49:54.641Z,2.17
2023-06-01T07:52:21.454Z,2.17
2023-06-01T07:54:49.034Z,2.05
2023-06-01T07:57:15.772Z,2.22
2023-06-01T07:59:43.115Z,2.00
2023-06-01T08:02:12.232Z,2.25
2023-06-01T08:04:40.055Z,2.22
2023-06-01T08:07:08.569Z,2.65
2023-06-01T08:09:36.583Z,2.00
2023-06-01T08:12:03.384Z,2.40
2023-06-01T08:14:33.401Z,2.40
2023-06-01T08:17:01.395Z,1.80
2023-06-01T08:19:28.539Z,2.30
2023-06-01T08:21:56.462Z,1.83
2023-06-01T08:24:24.132Z,2.53
2023-06-01T08:26:52.104Z,2.90
2023-06-01T08:29:27.488Z,2.53
2023-06-01T08:32:01.674Z,3.80
2023-06-01T08:34:28.513Z,1.80
2023-06-01T08:36:55.599Z,2.90
2023-06-01T08:39:24.040Z,2.55
2023-06-01T08:42:42.086Z,1.80
2023-06-01T08:45:09.256Z,2.00
2023-06-01T08:47:38.479Z,2.17
2023-06-01T08:50:06.129Z,2.25
2023-06-01T08:52:33.391Z,2.42
2023-06-01T08:55:01.553Z,2.47
2023-06-01T08:57:29.785Z,2.00
2023-06-01T08:59:57.201Z,2.45
2023-06-01T09:02:25.106Z,2.22
2023-06-01T09:04:52.327Z,3.05
2023-06-01T09:07:19.620Z,2.33
2023-06-01T09:09:47.044Z,2.47
2023-06-01T09:12:24.278Z,2.20
2023-06-01T09:14:52.461Z,2.33
2023-06-01T09:17:24.743Z,2.55
2023-06-01T09:19:56.604Z,2.55
2023-06-01T09:22:24.032Z,2.25
2023-06-01T09:25:00.787Z,2.17
2023-06-01T09:27:28.083Z,2.67
2023-06-01T09:29:58.026Z,2.53
2023-06-01T09:32:25.459Z,2.17
2023-06-01T09:34:52.496Z,2.47
2023-06-01T09:37:19.741Z,2.65
2023-06-01T09:39:46.533Z,3.03
2023-06-01T09:42:13.315Z,4.40
2023-06-01T09:44:41.619Z,2.67
2023-06-01T09:47:11.083Z,2.35
2023-06-01T09:49:40.565Z,2.20
2023-06-01T09:52:09.761Z,3.28
2023-06-01T09:54:38.886Z,3.08
2023-06-01T09:57:12.176Z,2.13
2023-06-01T09:59:45.464Z,2.42
2023-06-01T10:02:23.807Z,2.85
2023-06-01T10:04:59.497Z,2.60
2023-06-01T10:07:34.827Z,2.20
2023-06-01T10:10:04.171Z,3.03
2023-06-01T10:12:34.264Z,2.30
2023-06-01T10:15:07.406Z,2.30
2023-06-01T10:17:43.951Z,2.53
2023-06-01T10:20:12.657Z,2.80
2023-06-01T10:22:45.550Z,2.15
2023-06-01T10:25:14.241Z,2.72
2023-06-01T10:27:45.836Z,2.03
2023-06-01T10:30:14.002Z,2.42
2023-06-01T10:32:49.785Z,2.72
2023-06-01T10:35:34.801Z,2.40
2023-06-01T10:38:07.602Z,2.30
2023-06-01T10:40:35.491Z,3.35
2023-06-01T10:43:06.918Z,2.50
2023-06-01T10:45:38.490Z,2.67
2023-06-01T10:48:07.914Z,3.35
2023-06-01T10:50:36.791Z,2.72
2023-06-01T10:53:25.683Z,3.72
2023-06-01T10:56:21.402Z,2.65
2023-06-01T10:59:17.354Z,3.30
2023-06-01T11:01:46.883Z,3.17
2023-06-01T11:04:15.219Z,2.53
2023-06-01T11:06:44.761Z,2.55
2023-06-01T11:09:13.084Z,2.70
2023-06-01T11:11:57.258Z,2.80
2023-06-01T11:14:28.178Z,2.75
2023-06-01T11:16:59.503Z,2.95
2023-06-01T11:19:27.403Z,3.45
2023-06-01T11:22:02.146Z,3.22
2023-06-01T11:27:10.476Z,2.47
2023-06-01T11:29:37.633Z,3.70
2023-06-01T11:32:09.227Z,2.08
2023-06-01T11:34:42.238Z,2.40
2023-06-01T11:37:30.061Z,2.13
2023-06-01T11:40:06.634Z,2.42
2023-06-01T11:42:37.281Z,2.88
2023-06-01T11:45:06.248Z,2.42
2023-06-01T11:47:33.324Z,3.35
2023-06-01T11:50:01.076Z,3.25
2023-06-01T11:52:28.120Z,2.75
2023-06-01T11:55:04.503Z,3.08
2023-06-01T11:57:31.286Z,3.40
2023-06-01T12:00:00.612Z,2.53
2023-06-01T12:02:29.232Z,2.67
2023-06-01T12:04:58.237Z,2.92
2023-06-01T12:07:25.619Z,2.60
2023-06-01T12:09:55.338Z,2.28
2023-06-01T12:12:26.098Z,2.60
2023-06-01T12:14:53.322Z,2.50
2023-06-01T12:17:20.733Z,2.47
2023-06-01T12:19:50.681Z,2.40
2023-06-01T12:22:18.301Z,3.03
2023-06-01T12:24:46.208Z,4.10
2023-06-01T12:27:18.046Z,3.03
2023-06-01T12:29:49.068Z,2.70
2023-06-01T12:32:19.783Z,2.90
2023-06-01T12:35:04.094Z,2.45
2023-06-01T12:37:30.962Z,2.90
2023-06-01T12:39:57.842Z,2.58
2023-06-01T12:42:38.991Z,3.47
2023-06-01T12:45:07.117Z,3.22
2023-06-01T12:47:38.275Z,2.40
2023-06-01T12:50:07.024Z,2.90
2023-06-01T12:52:37.085Z,3.50
2023-06-01T12:55:07.125Z,3.15
2023-06-01T12:57:35.041Z,2.67
2023-06-01T13:00:02.008Z,3.28
2023-06-01T13:02:28.946Z,2.75
2023-06-01T13:04:55.961Z,3.60
2023-06-01T13:07:25.741Z,3.50
2023-06-01T13:09:52.711Z,3.15
2023-06-01T13:12:19.750Z,2.75
2023-06-01T13:14:46.871Z,2.92
2023-06-01T13:17:14.157Z,3.17
2023-06-01T13:19:44.260Z,2.72
2023-06-01T13:22:15.529Z,3.22
2023-06-01T13:24:53.471Z,3.80
2023-06-01T13:27:25.891Z,3.10
2023-06-01T13:29:52.988Z,2.40
2023-06-01T13:32:20.004Z,2.67
2023-06-01T13:34:47.382Z,3.35
2023-06-01T13:37:14.554Z,2.97
2023-06-01T13:39:41.851Z,2.95
2023-06-01T13:42:08.949Z,2.95
2023-06-01T13:44:35.734Z,3.40
2023-06-01T13:47:03.197Z,2.95
2023-06-01T13:49:30.232Z,3.30
2023-06-01T13:51:57.395Z,3.90
2023-06-01T13:54:24.217Z,3.03
2023-06-01T13:56:51.055Z,3.00
2023-06-01T13:59:18.518Z,3.13
2023-06-01T14:01:45.459Z,2.38
2023-06-01T14:04:12.408Z,3.20
2023-06-01T14:06:39.324Z,2.58
2023-06-01T14:09:06.115Z,2.97
2023-06-01T14:11:32.952Z,3.08
2023-06-01T14:13:59.950Z,3.70
2023-06-01T14:16:27.285Z,3.40
2023-06-01T14:18:54.201Z,3.45
2023-06-01T14:21:21.363Z,4.10
2023-06-01T14:23:48.598Z,2.97
2023-06-01T14:26:15.512Z,3.42
2023-06-01T14:28:42.570Z,3.50
2023-06-01T14:31:09.513Z,3.25
2023-06-01T14:33:36.493Z,2.97
2023-06-01T14:36:03.663Z,4.35
2023-06-01T14:38:30.717Z,3.00
2023-06-01T14:40:57.886Z,3.35
2023-06-01T14:43:25.055Z,2.95
2023-06-01T14:45:52.010Z,2.85
2023-06-01T14:48:18.963Z,3.40
2023-06-01T14:50:46.093Z,3.28
2023-06-01T14:53:18.387Z,4.80
2023-06-01T14:55:45.454Z,3.60
2023-06-01T14:58:12.419Z,3.15
2023-06-01T15:00:42.406Z,3.30
2023-06-01T15:03:09.481Z,4.95
2023-06-01T15:05:36.880Z,4.13
2023-06-01T15:08:06.695Z,4.93
2023-06-01T15:10:33.893Z,3.60
2023-06-01T15:13:00.945Z,3.38
2023-06-01T15:15:28.660Z,3.13
2023-06-01T15:17:56.443Z,2.90
2023-06-01T15:20:23.594Z,5.53
2023-06-01T15:22:50.433Z,4.40
2023-06-01T15:25:17.375Z,4.95
2023-06-01T15:27:44.746Z,4.15
2023-06-01T15:30:12.055Z,4.15
2023-06-01T15:32:38.941Z,4.80
2023-06-01T15:35:06.353Z,4.50
2023-06-01T15:37:33.316Z,3.50
2023-06-01T15:40:02.741Z,3.97
2023-06-01T15:42:29.503Z,4.75
2023-06-01T15:45:00.864Z,3.20
2023-06-01T15:47:28.461Z,3.72
2023-06-01T15:49:55.156Z,3.65
2023-06-01T15:52:21.953Z,4.32
2023-06-01T15:54:48.873Z,3.75
2023-06-01T15:57:16.066Z,2.65
2023-06-01T15:59:43.337Z,2.90
2023-06-01T16:02:10.676Z,2.60
2023-06-01T16:04:37.801Z,3.30
2023-06-01T16:07:07.674Z,3.42
2023-06-01T16:09:37.753Z,3.00
2023-06-01T16:12:05.011Z,3.20
2023-06-01T16:14:31.834Z,3.70
2023-06-01T16:17:00.201Z,3.63
2023-06-01T16:19:29.836Z,3.15
2023-06-01T16:21:59.075Z,3.40
2023-06-01T16:24:27.222Z,3.80
2023-06-01T16:26:54.135Z,3.50
2023-06-01T16:29:21.068Z,3.53
2023-06-01T16:31:49.160Z,3.45
2023-06-01T16:34:16.200Z,3.45
2023-06-01T16:36:43.038Z,3.60
2023-06-01T16:39:10.096Z,3.38
2023-06-01T16:41:36.972Z,3.10
2023-06-01T16:44:03.838Z,3.88
2023-06-01T16:46:30.714Z,3.15
2023-06-01T16:48:57.801Z,3.85
2023-06-01T16:51:24.746Z,3.60
2023-06-01T16:53:52.633Z,4.03
2023-06-01T16:56:19.349Z,4.10
2023-06-01T16:58:46.230Z,3.55
2023-06-01T17:01:13.514Z,5.20
2023-06-01T17:03:40.401Z,4.22
2023-06-01T17:06:07.791Z,3.72
2023-06-01T17:08:34.534Z,3.47
2023-06-01T17:11:01.486Z,3.55
2023-06-01T17:13:28.624Z,3.40
2023-06-01T17:15:55.677Z,4.97
2023-06-01T17:18:23.113Z,3.63
2023-06-01T17:20:50.169Z,3.72
2023-06-01T17:23:17.276Z,4.65
2023-06-01T17:25:44.185Z,4.03
2023-06-01T17:28:11.038Z,4.07
2023-06-01T17:30:38.413Z,4.22
2023-06-01T17:33:05.192Z,3.65
2023-06-01T17:35:32.577Z,4.30
2023-06-01T17:37:59.365Z,4.60
2023-06-01T17:40:26.359Z,4.00
2023-06-01T17:42:53.179Z,4.18
2023-06-01T17:45:20.113Z,4.35
2023-06-01T17:47:47.194Z,4.45
2023-06-01T17:50:14.130Z,3.95
2023-06-01T17:52:40.896Z,4.25
2023-06-01T17:55:08.129Z,3.95
2023-06-01T17:57:35.078Z,4.68
2023-06-01T18:00:02.300Z,4.50
2023-06-01T18:02:29.142Z,4.88
2023-06-01T18:04:56.404Z,4.32
2023-06-01T18:07:26.478Z,5.05
2023-06-01T18:09:53.196Z,4.82
2023-06-01T18:12:22.177Z,7.20
2023-06-01T18:14:51.117Z,6.55
2023-06-01T18:17:18.014Z,6.07
2023-06-01T18:19:45.155Z,5.57
2023-06-01T18:22:12.047Z,5.40
2023-06-01T18:24:38.834Z,6.07
2023-06-01T18:27:05.985Z,5.72
2023-06-01T18:29:32.773Z,4.78
2023-06-01T18:31:59.994Z,4.75
2023-06-01T18:34:26.840Z,5.45
2023-06-01T18:36:53.583Z,4.93
2023-06-01T18:39:20.556Z,5.28
2023-06-01T18:41:47.768Z,5.80
2023-06-01T18:44:14.496Z,7.72
2023-06-01T18:46:42.134Z,5.95
2023-06-01T18:49:09.453Z,7.03
2023-06-01T18:51:37.107Z,6.75
2023-06-01T18:54:06.294Z,6.32
2023-06-01T18:56:33.420Z,5.95
2023-06-01T18:59:00.477Z,6.38
2023-06-01T19:01:27.211Z,6.28
2023-06-01T19:03:54.638Z,5.30
2023-06-01T19:06:21.646Z,5.18
2023-06-01T19:08:48.660Z,5.55
2023-06-01T19:11:15.418Z,5.35
2023-06-01T19:13:44.235Z,5.68
2023-06-01T19:16:15.383Z,6.38
2023-06-01T19:18:51.403Z,6.00
2023-06-01T19:21:26.208Z,6.28
2023-06-01T19:26:35.504Z,5.10
2023-06-01T19:29:05.092Z,5.68
2023-06-01T19:31:36.910Z,5.88
2023-06-01T19:34:05.364Z,5.28
2023-06-01T19:36:44.180Z,5.05
2023-06-01T19:39:16.689Z,5.10
2023-06-01T19:41:44.353Z,5.30
2023-06-01T19:44:20.528Z,5.78
2023-06-01T19:46:48.763Z,4.90
2023-06-01T19:49:19.382Z,5.78
2023-06-01T19:51:47.252Z,5.95
2023-06-01T19:54:20.462Z,6.05
2023-06-01T19:56:48.751Z,6.22
2023-06-01T19:59:21.609Z,5.05
2023-06-01T20:01:49.345Z,6.90
2023-06-01T20:04:16.473Z,6.95
2023-06-01T20:06:49.445Z,4.50
2023-06-01T20:09:18.493Z,5.30
2023-06-01T20:11:47.883Z,4.90
2023-06-01T20:14:15.508Z,4.43
2023-06-01T20:16:47.144Z,4.85
2023-06-01T20:19:18.181Z,5.18
2023-06-01T20:21:49.952Z,5.03
2023-06-01T20:24:17.001Z,5.28
2023-06-01T20:26:48.281Z,4.03
2023-06-01T20:29:16.465Z,4.70
2023-06-01T20:31:43.331Z,4.18
2023-06-01T20:34:12.269Z,5.28
2023-06-01T20:36:39.394Z,4.18
2023-06-01T20:39:07.104Z,6.05
2023-06-01T20:41:35.486Z,6.15
2023-06-01T20:44:03.030Z,6.00
2023-06-01T20:46:33.202Z,6.07
2023-06-01T20:49:08.012Z,4.95
2023-06-01T20:51:37.775Z,4.68
2023-06-01T20:54:06.152Z,5.72
2023-06-01T20:56:35.811Z,5.03
2023-06-01T20:59:10.239Z,5.57
2023-06-01T21:01:39.030Z,4.50
2023-06-01T21:04:08.592Z,5.45
2023-06-01T21:06:36.485Z,5.93
2023-06-01T21:09:04.435Z,7.15
2023-06-01T21:11:31.690Z,5.72
2023-06-01T21:13:58.569Z,6.78
2023-06-01T21:16:25.744Z,4.97
2023-06-01T21:18:52.782Z,5.32
2023-06-01T21:21:19.876Z,5.20
2023-06-01T21:23:47.556Z,5.15
2023-06-01T21:26:16.372Z,6.38
2023-06-01T21:28:43.514Z,5.57
2023-06-01T21:31:10.746Z,6.60
2023-06-01T21:33:38.213Z,8.18
2023-06-01T21:36:05.422Z,8.35
2023-06-01T21:38:32.366Z,8.98
2023-06-01T21:40:59.299Z,8.10
2023-06-01T21:43:26.478Z,8.07
2023-06-01T21:45:53.916Z,6.80
2023-06-01T21:48:22.354Z,6.30
2023-06-01T21:50:49.730Z,7.25
2023-06-01T21:53:17.215Z,7.53
2023-06-01T21:55:46.336Z,5.90
2023-06-01T21:58:14.600Z,7.00
2023-06-01T22:00:45.427Z,6.20
2023-06-01T22:03:12.556Z,6.28
2023-06-01T22:05:39.523Z,6.13
2023-06-01T22:08:06.668Z,6.07
2023-06-01T22:10:33.581Z,6.00
2023-06-01T22:13:00.576Z,5.57
2023-06-01T22:15:27.588Z,5.38
2023-06-01T22:17:54.738Z,6.43
2023-06-01T22:20:21.678Z,6.50
2023-06-01T22:22:48.756Z,5.18
2023-06-01T22:25:16.138Z,5.35
2023-06-01T22:27:43.259Z,4.82
2023-06-01T22:30:11.174Z,4.50
2023-06-01T22:32:38.248Z,6.18
2023-06-01T22:35:05.546Z,5.72
2023-06-01T22:37:32.480Z,6.00
2023-06-01T22:39:59.250Z,5.30
2023-06-01T22:42:26.588Z,4.97
2023-06-01T22:44:53.948Z,4.65
2023-06-01T22:47:20.745Z,5.40
2023-06-01T22:49:47.939Z,5.70
2023-06-01T22:52:15.008Z,4.78
2023-06-01T22:54:42.056Z,5.32
2023-06-01T22:57:09.010Z,5.82
2023-06-01T22:59:36.656Z,6.72
2023-06-01T23:02:03.942Z,4.85
2023-06-01T23:04:35.639Z,5.05
2023-06-01T23:07:07.819Z,5.03
2023-06-01T23:09:35.915Z,6.93
2023-06-01T23:12:04.219Z,5.10
2023-06-01T23:14:31.090Z,5.28
2023-06-01T23:17:01.946Z,4.97
2023-06-01T23:19:33.048Z,5.00
2023-06-01T23:22:06.788Z,6.18
2023-06-01T23:24:34.078Z,5.75
2023-06-01T23:27:01.862Z,5.07
2023-06-01T23:29:29.208Z,5.10
2023-06-01T23:31:56.445Z,5.10
2023-06-01T23:34:23.799Z,5.53
2023-06-01T23:36:54.524Z,5.53
2023-06-01T23:39:24.418Z,5.30
2023-06-01T23:41:51.494Z,4.60
2023-06-01T23:44:18.573Z,6.00
2023-06-01T23:46:46.564Z,4.50
2023-06-01T23:49:14.907Z,5.53
2023-06-01T23:51:41.880Z,4.18
2023-06-01T23:54:09.061Z,4.72
2023-06-01T23:56:36.067Z,4.40
2023-06-01T23:59:03.902Z,4.80
